Time;durP1;ratioP1;P1;durP2;ratioP2;P2;SDS_P1;SDS_P2;PMS_P1;PMS_P2;Temp;Humidity;BMP_temperature;BMP_pressure;BME280_temperature;BME280_humidity;BME280_pressure;Samples;Min_cycle;Max_cycle;Signal;HPM_P1;HPM_P2
2023/06/12 00:02:21;;;;;;;;;;;;;;;15.07;100.00;99063.41;5030916;28;836;-57
2023/06/12 00:04:48;;;;;;;;;;;;;;;15.09;100.00;99064.50;5030852;28;927;-57
2023/06/12 00:07:16;;;;;;;;;;;;;;;15.13;100.00;99066.38;5030856;28;1961;-56
2023/06/12 00:09:43;;;;;;;;;;;;;;;15.08;100.00;99053.81;5030957;28;815;-57
2023/06/12 00:12:10;;;;;;;;;;;;;;;15.02;100.00;99061.16;5030928;28;1367;-57
2023/06/12 00:14:37;;;;;;;;;;;;;;;14.94;100.00;99059.88;5030979;28;824;-57
2023/06/12 00:17:03;;;;;;;;;;;;;;;14.86;100.00;99059.34;5030823;28;855;-57
2023/06/12 00:19:30;;;;;;;;;;;;;;;14.98;100.00;99057.72;5033004;28;844;-56
2023/06/12 00:21:57;;;;;;;;;;;;;;;15.53;100.00;99055.38;5034314;28;851;-57
2023/06/12 00:24:23;;;;;;;;;;;;;;;16.11;100.00;99063.16;5034337;28;835;-57
2023/06/12 00:26:50;;;;;;;;;;;;;;;16.50;100.00;99052.41;5034138;28;1968;-57
2023/06/12 00:29:17;;;;;;;;;;;;;;;16.77;100.00;99050.94;5034321;28;872;-57
2023/06/12 00:31:44;;;;;;;;;;;;;;;16.97;100.00;99050.50;5032903;28;1203;-57
2023/06/12 00:34:11;;;;;;;;;;;;;;;17.11;100.00;99051.88;5034101;28;882;-57
2023/06/12 00:36:38;;;;;;;;;;;;;;;17.20;100.00;99054.69;5034130;28;820;-57
2023/06/12 00:39:05;;;;;;;;;;;;;;;17.27;100.00;99046.00;5033920;28;880;-57
2023/06/12 00:41:32;;;;;;;;;;;;;;;17.31;100.00;99051.44;5034136;28;867;-57
2023/06/12 00:43:59;;;;;;;;;;;;;;;17.31;100.00;99045.84;5034072;28;898;-57
2023/06/12 00:46:26;;;;;;;;;;;;;;;17.34;100.00;99056.06;5033795;28;1939;-57
2023/06/12 00:48:53;;;;;;;;;;;;;;;17.38;100.00;99058.72;5034151;28;899;-57
2023/06/12 00:51:20;;;;;;;;;;;;;;;17.37;100.00;99045.97;5033835;28;864;-57
2023/06/12 00:53:47;;;;;;;;;;;;;;;17.28;100.00;99058.72;5033711;28;886;-57
2023/06/12 00:56:13;;;;;;;;;;;;;;;17.02;100.00;99044.28;5033629;28;812;-57
2023/06/12 00:58:40;;;;;;;;;;;;;;;16.79;100.00;99054.03;5033662;28;887;-57
2023/06/12 01:01:08;;;;;;;;;;;;;;;16.64;100.00;99051.06;5033610;28;824;-57
2023/06/12 01:03:35;;;;;;;;;;;;;;;16.48;100.00;99056.91;5033890;28;844;-57
2023/06/12 01:06:05;;;;;;;;;;;;;;;16.35;100.00;99061.84;5033396;28;1881;-57
2023/06/12 01:08:45;;;;;;;;;;;;;;;16.20;100.00;99065.19;5033556;28;895;-57
2023/06/12 01:11:13;;;;;;;;;;;;;;;16.04;100.00;99068.22;5033388;28;1112;-57
2023/06/12 01:13:40;;;;;;;;;;;;;;;15.94;100.00;99067.41;5033392;28;855;-57
2023/06/12 01:16:07;;;;;;;;;;;;;;;15.97;100.00;99063.69;5033345;28;812;-57
2023/06/12 01:18:34;;;;;;;;;;;;;;;16.09;100.00;99065.63;5033317;28;928;-57
2023/06/12 01:21:04;;;;;;;;;;;;;;;16.10;100.00;99067.16;5033306;28;828;-57
2023/06/12 01:23:47;;;;;;;;;;;;;;;16.17;100.00;99070.91;5033159;28;856;-58
2023/06/12 01:26:25;;;;;;;;;;;;;;;16.21;100.00;99068.75;5033029;28;1910;-57
2023/06/12 01:29:06;;;;;;;;;;;;;;;16.13;100.00;99071.81;5033088;28;879;-57
2023/06/12 01:31:56;;;;;;;;;;;;;;;15.95;100.00;99085.66;5032098;28;816;-57
2023/06/12 01:34:28;;;;;;;;;;;;;;;15.80;100.00;99082.66;5020580;28;1122;-57
2023/06/12 01:37:13;;;;;;;;;;;;;;;15.63;100.00;99084.84;5032975;28;815;-56
2023/06/12 01:39:40;;;;;;;;;;;;;;;15.48;100.00;99081.03;5032908;28;906;-57
2023/06/12 01:42:08;;;;;;;;;;;;;;;15.36;100.00;99084.66;5032744;28;1006;-57
2023/06/12 01:44:36;;;;;;;;;;;;;;;15.59;100.00;99086.97;5032821;28;816;-57
2023/06/12 01:47:03;;;;;;;;;;;;;;;15.97;100.00;99083.19;5032661;28;1945;-57
2023/06/12 01:49:30;;;;;;;;;;;;;;;16.37;100.00;99085.25;5032689;28;939;-57
2023/06/12 01:51:56;;;;;;;;;;;;;;;16.64;100.00;99076.19;5032630;28;907;-56
2023/06/12 01:54:24;;;;;;;;;;;;;;;16.80;100.00;99079.91;5032605;28;879;-56
2023/06/12 01:56:50;;;;;;;;;;;;;;;16.89;100.00;99077.16;5032418;28;942;-56
2023/06/12 01:59:17;;;;;;;;;;;;;;;16.90;100.00;99082.28;5032514;28;835;-56
2023/06/12 02:01:44;;;;;;;;;;;;;;;16.91;100.00;99092.19;5032431;28;828;-57
2023/06/12 02:04:12;;;;;;;;;;;;;;;16.91;100.00;99092.19;5032462;28;914;-57
2023/06/12 02:06:39;;;;;;;;;;;;;;;16.91;100.00;99095.00;5032300;28;1937;-57
2023/06/12 02:09:05;;;;;;;;;;;;;;;16.93;100.00;99091.75;5032338;28;891;-56
2023/06/12 02:11:32;;;;;;;;;;;;;;;16.93;100.00;99106.47;5032165;28;1287;-57
2023/06/12 02:13:59;;;;;;;;;;;;;;;16.92;100.00;99101.38;5030939;28;1385;-56
2023/06/12 02:16:27;;;;;;;;;;;;;;;16.92;100.00;99107.72;5032457;28;853;-57
2023/06/12 02:18:54;;;;;;;;;;;;;;;16.92;100.00;99110.50;5032172;28;903;-56
2023/06/12 02:21:21;;;;;;;;;;;;;;;16.90;100.00;99107.41;5032085;28;934;-56
2023/06/12 02:23:48;;;;;;;;;;;;;;;16.87;100.00;99113.13;5030724;28;1318;-57
2023/06/12 02:26:16;;;;;;;;;;;;;;;16.86;100.00;99108.81;5031903;28;1967;-57
2023/06/12 02:28:43;;;;;;;;;;;;;;;16.84;100.00;99106.47;5031969;28;887;-57
2023/06/12 02:31:10;;;;;;;;;;;;;;;16.86;100.00;99106.00;5031988;28;873;-57
2023/06/12 02:33:39;;;;;;;;;;;;;;;16.88;100.00;99106.31;5031907;28;852;-56
2023/06/12 02:36:07;;;;;;;;;;;;;;;16.90;100.00;99115.78;5031867;28;894;-56
2023/06/12 02:38:34;;;;;;;;;;;;;;;16.93;100.00;99112.06;5032040;28;942;-57
2023/06/12 02:41:01;;;;;;;;;;;;;;;17.04;100.00;99119.22;5031386;28;930;-56
2023/06/12 02:43:28;;;;;;;;;;;;;;;17.12;100.00;99126.03;5031756;28;808;-57
2023/06/12 02:45:54;;;;;;;;;;;;;;;17.17;100.00;99133.78;5031612;28;1902;-57
2023/06/12 02:48:22;;;;;;;;;;;;;;;17.21;100.00;99134.41;5031743;28;876;-56
2023/06/12 02:50:49;;;;;;;;;;;;;;;17.26;100.00;99131.03;5031631;28;884;-56
2023/06/12 02:53:15;;;;;;;;;;;;;;;17.31;100.00;99135.22;5031797;28;820;-56
2023/06/12 02:55:44;;;;;;;;;;;;;;;17.32;100.00;99137.53;5031488;28;839;-56
2023/06/12 02:58:10;;;;;;;;;;;;;;;17.30;100.00;99128.88;5031895;28;796;-56
2023/06/12 03:00:37;;;;;;;;;;;;;;;17.31;100.00;99132.41;5031513;28;831;-55
2023/06/12 03:03:05;;;;;;;;;;;;;;;17.32;100.00;99136.75;5030558;28;1343;-57
2023/06/12 03:05:31;;;;;;;;;;;;;;;17.32;100.00;99140.31;5031703;28;1947;-56
2023/06/12 03:07:58;;;;;;;;;;;;;;;17.37;100.00;99138.16;5031414;28;855;-56
2023/06/12 03:10:24;;;;;;;;;;;;;;;17.44;100.00;99140.66;5031527;28;921;-54
2023/06/12 03:12:52;;;;;;;;;;;;;;;17.49;100.00;99145.59;5031165;28;1194;-56
2023/06/12 03:15:18;;;;;;;;;;;;;;;17.51;100.00;99146.69;5031351;28;890;-55
2023/06/12 03:17:45;;;;;;;;;;;;;;;17.53;100.00;99152.59;5031374;28;796;-54
2023/06/12 03:20:14;;;;;;;;;;;;;;;17.53;100.00;99143.44;5031319;28;812;-54
2023/06/12 03:22:41;;;;;;;;;;;;;;;17.54;100.00;99148.56;5032176;28;832;-57
2023/06/12 03:25:09;;;;;;;;;;;;;;;17.53;100.00;99135.81;5031617;28;808;-55
2023/06/12 03:27:36;;;;;;;;;;;;;;;17.54;100.00;99140.19;5031561;28;1333;-56
2023/06/12 03:30:03;;;;;;;;;;;;;;;17.54;100.00;99137.38;5031687;28;839;-56
2023/06/12 03:32:30;;;;;;;;;;;;;;;17.55;100.00;99144.50;5031532;28;867;-57
2023/06/12 03:34:58;;;;;;;;;;;;;;;17.54;100.00;99145.75;5031626;28;820;-56
2023/06/12 03:37:27;;;;;;;;;;;;;;;17.59;100.00;99141.56;5031676;28;876;-56
2023/06/12 03:39:54;;;;;;;;;;;;;;;17.67;100.00;99153.22;5031200;28;836;-55
2023/06/12 03:42:21;;;;;;;;;;;;;;;17.76;100.00;99145.59;5031151;28;878;-57
2023/06/12 03:44:47;;;;;;;;;;;;;;;17.84;100.00;99143.28;5031320;28;812;-56
2023/06/12 03:47:14;;;;;;;;;;;;;;;17.89;100.00;99151.03;5031003;28;1967;-56
2023/06/12 03:49:41;;;;;;;;;;;;;;;17.97;100.00;99157.09;5031186;28;887;-56
2023/06/12 03:52:08;;;;;;;;;;;;;;;18.10;100.00;99156.91;5031384;28;887;-55
2023/06/12 03:54:34;;;;;;;;;;;;;;;18.25;100.00;99165.41;5032331;28;860;-55
2023/06/12 03:57:01;;;;;;;;;;;;;;;18.40;100.00;99160.69;5035181;28;935;-56
2023/06/12 03:59:28;;;;;;;;;;;;;;;18.54;100.00;99171.22;5035083;28;824;-56
2023/06/12 04:01:57;;;;;;;;;;;;;;;18.76;100.00;99164.59;5034891;28;832;-55
2023/06/12 04:04:23;;;;;;;;;;;;;;;19.00;100.00;99161.06;5034726;28;832;-56
2023/06/12 04:06:50;;;;;;;;;;;;;;;19.01;100.00;99169.00;5034644;28;1914;-56
2023/06/12 04:09:17;;;;;;;;;;;;;;;19.09;100.00;99172.19;5034690;28;808;-55
2023/06/12 04:11:44;;;;;;;;;;;;;;;19.10;100.00;99171.72;5034370;28;1363;-57
2023/06/12 04:14:11;;;;;;;;;;;;;;;19.03;100.00;99174.09;5034610;28;828;-56
2023/06/12 04:16:38;;;;;;;;;;;;;;;18.98;100.00;99184.69;5034447;28;832;-55
2023/06/12 04:19:05;;;;;;;;;;;;;;;19.01;100.00;99174.59;5033118;28;1306;-56
2023/06/12 04:21:32;;;;;;;;;;;;;;;19.06;100.00;99173.94;5034386;28;852;-56
2023/06/12 04:24:01;;;;;;;;;;;;;;;19.10;100.00;99170.97;5034155;28;936;-55
2023/06/12 04:26:28;;;;;;;;;;;;;;;19.11;100.00;99178.09;5034270;28;1910;-56
2023/06/12 04:28:55;;;;;;;;;;;;;;;19.12;100.00;99171.25;5034255;28;835;-55
2023/06/12 04:31:21;;;;;;;;;;;;;;;19.14;100.00;99180.72;5033235;28;879;-55
2023/06/12 04:33:51;;;;;;;;;;;;;;;19.21;100.00;99178.81;5034219;28;883;-55
2023/06/12 04:36:18;;;;;;;;;;;;;;;19.27;100.00;99177.69;5034081;28;796;-55
2023/06/12 04:38:45;;;;;;;;;;;;;;;19.35;100.00;99175.28;5034057;28;954;-55
2023/06/12 04:41:11;;;;;;;;;;;;;;;19.37;100.00;99176.38;5033958;28;816;-55
2023/06/12 04:43:38;;;;;;;;;;;;;;;19.46;100.00;99180.34;5034301;28;844;-55
2023/06/12 04:46:07;;;;;;;;;;;;;;;19.51;100.00;99188.09;5033845;28;1885;-55
2023/06/12 04:48:36;;;;;;;;;;;;;;;19.53;100.00;99188.41;5033912;28;1143;-54
2023/06/12 04:51:03;;;;;;;;;;;;;;;19.52;100.00;99190.44;5033887;28;875;-55
2023/06/12 04:53:30;;;;;;;;;;;;;;;19.54;100.00;99187.94;5033723;28;843;-54
2023/06/12 04:55:57;;;;;;;;;;;;;;;19.57;100.00;99192.56;5033752;28;843;-55
2023/06/12 04:58:23;;;;;;;;;;;;;;;19.58;100.00;99196.13;5033720;28;894;-55
2023/06/12 05:00:50;;;;;;;;;;;;;;;19.67;100.00;99190.47;5033637;28;852;-54
2023/06/12 05:03:18;;;;;;;;;;;;;;;19.69;100.00;99195.56;5033520;28;913;-55
2023/06/12 05:05:48;;;;;;;;;;;;;;;19.75;100.00;99193.69;5033118;28;1886;-55
2023/06/12 05:08:15;;;;;;;;;;;;;;;19.79;100.00;99205.50;5033547;28;886;-54
2023/06/12 05:10:42;;;;;;;;;;;;;;;19.81;100.00;99196.59;5033556;28;903;-56
2023/06/12 05:13:09;;;;;;;;;;;;;;;19.80;100.00;99207.06;5033142;28;1442;-56
2023/06/12 05:15:35;;;;;;;;;;;;;;;19.66;100.00;99200.13;5033300;28;820;-54
2023/06/12 05:18:02;;;;;;;;;;;;;;;19.58;100.00;99202.50;5033379;28;836;-55
2023/06/12 05:20:29;;;;;;;;;;;;;;;19.54;100.00;99203.94;5033242;28;880;-54
2023/06/12 05:22:56;;;;;;;;;;;;;;;19.57;100.00;99208.59;5033168;28;883;-55
2023/06/12 05:25:24;;;;;;;;;;;;;;;19.54;100.00;99207.53;5032993;28;1942;-56
2023/06/12 05:27:51;;;;;;;;;;;;;;;19.56;100.00;99212.66;5033171;28;828;-54
2023/06/12 05:30:17;;;;;;;;;;;;;;;19.58;100.00;99207.34;5033061;28;836;-56
2023/06/12 05:32:44;;;;;;;;;;;;;;;19.54;100.00;99204.75;5033182;28;894;-54
2023/06/12 05:35:10;;;;;;;;;;;;;;;19.53;100.00;99210.81;5032984;28;812;-55
2023/06/12 05:37:38;;;;;;;;;;;;;;;19.54;100.00;99206.75;5032939;28;852;-54
2023/06/12 05:40:05;;;;;;;;;;;;;;;19.55;100.00;99209.06;5032940;28;882;-54
2023/06/12 05:42:32;;;;;;;;;;;;;;;19.51;100.00;99219.69;5032767;28;875;-55
2023/06/12 05:44:58;;;;;;;;;;;;;;;19.54;100.00;99212.34;5032983;28;829;-55
2023/06/12 05:47:25;;;;;;;;;;;;;;;19.65;100.00;99218.22;5032677;28;1957;-55
2023/06/12 05:49:52;;;;;;;;;;;;;;;19.77;100.00;99216.41;5032699;28;873;-56
2023/06/12 05:52:18;;;;;;;;;;;;;;;19.78;100.00;99207.53;5032588;28;816;-55
2023/06/12 05:54:45;;;;;;;;;;;;;;;19.80;100.00;99215.47;5032657;28;867;-54
2023/06/12 05:57:13;;;;;;;;;;;;;;;19.77;100.00;99228.41;5032468;28;958;-53
2023/06/12 05:59:39;;;;;;;;;;;;;;;19.94;100.00;99216.72;5032569;28;804;-53
2023/06/12 06:02:07;;;;;;;;;;;;;;;20.25;100.00;99221.91;5032527;28;900;-57
2023/06/12 06:04:33;;;;;;;;;;;;;;;20.34;100.00;99223.84;5032353;28;918;-55
2023/06/12 06:07:00;;;;;;;;;;;;;;;20.21;100.00;99223.34;5032328;28;1894;-55
2023/06/12 06:09:27;;;;;;;;;;;;;;;20.19;100.00;99235.81;5032356;28;867;-55
2023/06/12 06:11:56;;;;;;;;;;;;;;;19.98;100.00;99240.53;5032246;28;1273;-54
2023/06/12 06:14:23;;;;;;;;;;;;;;;19.82;100.00;99238.16;5032260;28;832;-54
2023/06/12 06:16:49;;;;;;;;;;;;;;;19.81;100.00;99244.28;5031600;28;879;-54
2023/06/12 06:19:16;;;;;;;;;;;;;;;20.04;100.00;99248.28;5032143;28;891;-54
2023/06/12 06:21:43;;;;;;;;;;;;;;;21.94;100.00;99246.84;5032008;28;856;-57
2023/06/12 06:24:10;;;;;;;;;;;;;;;23.99;100.00;99250.66;5032085;28;848;-55
2023/06/12 06:26:36;;;;;;;;;;;;;;;25.01;100.00;99246.63;5030641;28;1968;-55
2023/06/12 06:29:03;;;;;;;;;;;;;;;25.84;100.00;99260.31;5032021;28;867;-55
2023/06/12 06:31:30;;;;;;;;;;;;;;;26.74;100.00;99273.94;5031949;28;836;-54
2023/06/12 06:33:57;;;;;;;;;;;;;;;26.87;100.00;99267.66;5031957;28;875;-54
2023/06/12 06:36:23;;;;;;;;;;;;;;;27.31;99.93;99268.53;5031763;28;908;-51
2023/06/12 06:38:50;;;;;;;;;;;;;;;27.25;100.00;99267.84;5031843;28;848;-52
2023/06/12 06:41:17;;;;;;;;;;;;;;;27.51;99.43;99269.38;5031894;28;851;-54
2023/06/12 06:43:44;;;;;;;;;;;;;;;27.25;96.86;99267.84;5031824;28;887;-51
2023/06/12 06:46:11;;;;;;;;;;;;;;;27.37;97.66;99266.41;5031650;28;1947;-51
2023/06/12 06:48:38;;;;;;;;;;;;;;;27.68;97.42;99267.84;5031697;28;831;-50
2023/06/12 06:51:06;;;;;;;;;;;;;;;27.97;95.29;99265.44;5031641;28;902;-54
2023/06/12 06:53:33;;;;;;;;;;;;;;;28.46;93.75;99267.31;5031649;28;878;-51
2023/06/12 06:56:00;;;;;;;;;;;;;;;28.31;87.59;99270.66;5031589;28;915;-53
2023/06/12 06:58:26;;;;;;;;;;;;;;;27.36;92.20;99270.53;5031649;28;828;-51
2023/06/12 07:00:53;;;;;;;;;;;;;;;27.29;92.18;99268.31;5031565;28;792;-55
2023/06/12 07:03:20;;;;;;;;;;;;;;;26.87;92.04;99268.41;5031737;28;824;-52
2023/06/12 07:05:47;;;;;;;;;;;;;;;26.72;95.00;99267.28;5031359;28;1943;-52
2023/06/12 07:08:13;;;;;;;;;;;;;;;26.81;94.73;99258.41;5031513;28;887;-52
2023/06/12 07:10:40;;;;;;;;;;;;;;;26.98;94.29;99255.44;5031436;28;1008;-51
2023/06/12 07:13:06;;;;;;;;;;;;;;;27.42;95.25;99244.97;5031203;28;1373;-51
2023/06/12 07:15:33;;;;;;;;;;;;;;;28.06;89.46;99250.88;5030138;28;911;-52
2023/06/12 07:17:59;;;;;;;;;;;;;;;27.46;90.12;99243.34;5031355;28;824;-54
2023/06/12 07:20:26;;;;;;;;;;;;;;;27.27;92.87;99248.97;5031260;28;804;-51
2023/06/12 07:22:52;;;;;;;;;;;;;;;27.84;89.77;99262.50;5031325;28;861;-55
2023/06/12 07:25:19;;;;;;;;;;;;;;;27.76;91.57;99259.50;5031247;28;1967;-54
2023/06/12 07:27:46;;;;;;;;;;;;;;;28.06;89.79;99265.06;5032585;28;906;-54
2023/06/12 07:30:13;;;;;;;;;;;;;;;27.86;88.51;99255.00;5035341;28;844;-55
2023/06/12 07:32:39;;;;;;;;;;;;;;;28.16;89.02;99253.31;5035353;28;926;-54
2023/06/12 07:35:06;;;;;;;;;;;;;;;27.77;89.00;99258.19;5035342;28;808;-54
2023/06/12 07:37:35;;;;;;;;;;;;;;;28.27;89.68;99253.94;5035187;28;842;-56
2023/06/12 07:40:05;;;;;;;;;;;;;;;28.61;86.80;99261.94;5035091;28;1002;-55
2023/06/12 07:45:47;;;;;;;;;;;;;;;28.70;84.60;99261.56;4954801;29;1882;-55
2023/06/12 07:48:23;;;;;;;;;;;;;;;28.49;85.53;99267.06;4954865;29;825;-54
2023/06/12 07:50:50;;;;;;;;;;;;;;;28.83;86.46;99260.06;4954620;29;918;-54
2023/06/12 07:53:17;;;;;;;;;;;;;;;28.80;84.80;99259.03;4955033;29;959;-55
2023/06/12 07:55:43;;;;;;;;;;;;;;;28.97;85.89;99260.84;4954744;29;955;-56
2023/06/12 07:58:10;;;;;;;;;;;;;;;29.61;85.89;99268.47;4954720;29;904;-55
2023/06/12 08:00:37;;;;;;;;;;;;;;;29.62;77.52;99264.31;4954655;29;869;-54
2023/06/12 08:03:04;;;;;;;;;;;;;;;29.02;78.49;99260.75;4954699;29;1241;-55
2023/06/12 08:05:31;;;;;;;;;;;;;;;28.48;77.82;99254.13;4954711;29;1894;-57
2023/06/12 08:07:58;;;;;;;;;;;;;;;26.68;83.31;99265.47;4954729;29;861;-54
2023/06/12 08:10:24;;;;;;;;;;;;;;;25.02;91.68;99262.28;4954547;29;1021;-55
2023/06/12 08:12:51;;;;;;;;;;;;;;;24.02;98.26;99266.56;4954320;29;1293;-55
2023/06/12 08:15:19;;;;;;;;;;;;;;;23.56;100.00;99267.66;4954514;29;934;-56
2023/06/12 08:17:46;;;;;;;;;;;;;;;23.12;100.00;99266.88;4954378;29;888;-57
2023/06/12 08:20:15;;;;;;;;;;;;;;;22.87;100.00;99262.81;4954327;29;872;-55
2023/06/12 08:22:42;;;;;;;;;;;;;;;22.74;100.00;99259.66;5004783;28;1010;-56
2023/06/12 08:25:09;;;;;;;;;;;;;;;22.54;100.00;99258.47;5034251;28;969;-54
2023/06/12 08:27:35;;;;;;;;;;;;;;;22.24;100.00;99257.94;5034254;28;1961;-56
2023/06/12 08:30:03;;;;;;;;;;;;;;;22.89;100.00;99257.44;5034300;28;812;-56
2023/06/12 08:32:30;;;;;;;;;;;;;;;24.93;98.35;99251.28;5034200;28;851;-55
2023/06/12 08:34:56;;;;;;;;;;;;;;;26.12;89.54;99250.91;5034570;28;867;-54
2023/06/12 08:37:25;;;;;;;;;;;;;;;26.95;77.82;99262.94;5032883;28;1275;-55
2023/06/12 08:39:52;;;;;;;;;;;;;;;26.54;80.37;99252.41;5033414;28;836;-55
2023/06/12 08:54:33;;;;;;;;;;;;;;;28.42;70.05;99252.66;5034355;28;709;-55
2023/06/12 08:56:59;;;;;;;;;;;;;;;28.11;72.38;99254.94;5033786;28;855;-54
2023/06/12 08:59:25;;;;;;;;;;;;;;;27.95;72.22;99251.00;5033790;28;899;-55
2023/06/12 09:01:54;;;;;;;;;;;;;;;28.20;74.27;99246.00;5033692;28;838;-56
2023/06/12 09:04:28;;;;;;;;;;;;;;;29.14;71.59;99247.09;5033695;28;875;-53
2023/06/12 09:07:01;;;;;;;;;;;;;;;29.57;69.17;99240.31;5033457;28;1918;-53
2023/06/12 09:09:57;;;;;;;;;;;;;;;29.20;67.09;99244.16;5033492;28;815;-56
2023/06/12 09:12:24;;;;;;;;;;;;;;;28.12;71.67;99244.34;5016296;28;1272;-56
2023/06/12 09:14:51;;;;;;;;;;;;;;;28.23;73.10;99236.44;5033410;28;884;-55
2023/06/12 09:17:17;;;;;;;;;;;;;;;28.02;72.07;99243.97;5033328;28;855;-54
2023/06/12 09:19:45;;;;;;;;;;;;;;;27.44;73.79;99237.44;5033300;28;929;-54
2023/06/12 09:22:12;;;;;;;;;;;;;;;27.42;74.88;99240.03;5033269;28;880;-54
2023/06/12 09:24:40;;;;;;;;;;;;;;;27.36;75.73;99235.75;5033252;28;812;-53
2023/06/12 09:27:07;;;;;;;;;;;;;;;27.31;76.55;99230.88;5033201;28;1973;-55
2023/06/12 09:29:34;;;;;;;;;;;;;;;26.70;76.97;99247.19;5033141;28;837;-54
2023/06/12 09:32:02;;;;;;;;;;;;;;;26.22;79.67;99235.94;5033009;28;907;-52
2023/06/12 09:34:31;;;;;;;;;;;;;;;26.53;79.63;99238.78;5033040;28;887;-54
2023/06/12 09:37:03;;;;;;;;;;;;;;;26.43;78.11;99246.84;5032989;28;859;-56
2023/06/12 09:39:30;;;;;;;;;;;;;;;25.66;81.47;99256.00;5032978;28;875;-55
2023/06/12 10:10:48;;;;;;;;;;;;;;;26.17;77.93;99259.38;6067453;22;1531;-61
2023/06/12 10:13:16;;;;;;;;;;;;;;;26.00;79.72;99264.38;4992997;28;902;-62
2023/06/12 10:15:42;;;;;;;;;;;;;;;25.82;79.63;99255.16;4993007;28;819;-60
2023/06/12 10:18:09;;;;;;;;;;;;;;;25.45;81.72;99252.72;4992921;28;879;-61
2023/06/12 10:20:37;;;;;;;;;;;;;;;25.32;81.66;99255.34;4992771;28;919;-62
2023/06/12 10:23:10;;;;;;;;;;;;;;;25.59;81.80;99257.31;5109748;27;1272;-62
2023/06/12 10:28:55;;;;;;;;;;;;;;;23.98;87.71;99251.91;5109512;28;690;-64
2023/06/12 10:31:22;;;;;;;;;;;;;;;23.49;91.83;99243.50;5109404;28;873;-63
2023/06/12 10:34:01;;;;;;;;;;;;;;;24.27;89.35;99261.22;5109340;28;813;-63
2023/06/12 10:36:44;;;;;;;;;;;;;;;25.03;84.82;99257.44;5109321;28;809;-62
2023/06/12 10:39:19;;;;;;;;;;;;;;;25.26;83.27;99247.66;5109106;28;900;-65
2023/06/12 10:42:12;;;;;;;;;;;;;;;25.95;80.77;99251.78;5109079;28;1910;-63
2023/06/12 10:44:46;;;;;;;;;;;;;;;26.62;78.24;99252.66;5108266;28;1373;-61
2023/06/12 10:47:20;;;;;;;;;;;;;;;26.76;76.18;99251.50;5108966;28;849;-62
2023/06/12 10:49:57;;;;;;;;;;;;;;;26.83;75.77;99255.81;5108992;28;778;-64
2023/06/12 10:52:25;;;;;;;;;;;;;;;27.23;75.23;99253.41;5108996;28;853;-64
2023/06/12 10:55:09;;;;;;;;;;;;;;;27.25;71.80;99245.91;5108869;28;839;-64
2023/06/12 10:57:36;;;;;;;;;;;;;;;27.67;71.45;99248.50;5108938;28;919;-62
2023/06/12 11:00:05;;;;;;;;;;;;;;;27.45;71.39;99246.72;5108899;28;905;-64
2023/06/12 11:02:32;;;;;;;;;;;;;;;27.83;70.69;99256.06;5108656;28;1886;-62
2023/06/12 11:05:08;;;;;;;;;;;;;;;27.92;69.18;99249.25;5108716;28;829;-62
2023/06/12 11:07:35;;;;;;;;;;;;;;;27.54;70.27;99252.03;5108937;28;809;-64
2023/06/12 11:10:11;;;;;;;;;;;;;;;27.53;70.13;99244.81;5108484;28;869;-61
2023/06/12 11:12:45;;;;;;;;;;;;;;;27.62;70.33;99238.00;5108815;28;830;-63
2023/06/12 11:15:12;;;;;;;;;;;;;;;27.49;70.17;99247.94;5108517;28;881;-64
2023/06/12 11:17:38;;;;;;;;;;;;;;;27.54;70.55;99246.34;5108411;28;904;-62
2023/06/12 11:20:08;;;;;;;;;;;;;;;27.38;70.36;99248.09;5108506;28;838;-64
2023/06/12 11:22:34;;;;;;;;;;;;;;;26.63;72.91;99252.13;5107970;28;1885;-63
2023/06/12 11:25:04;;;;;;;;;;;;;;;26.58;73.73;99247.25;5108662;28;1035;-65
2023/06/12 11:27:30;;;;;;;;;;;;;;;26.40;74.49;99251.50;5108261;28;766;-64
2023/06/12 11:30:06;;;;;;;;;;;;;;;26.71;73.93;99249.47;5108276;28;842;-63
2023/06/12 11:32:33;;;;;;;;;;;;;;;27.29;72.16;99254.88;5105982;28;814;-65
2023/06/12 11:35:01;;;;;;;;;;;;;;;27.71;69.68;99257.50;5094512;28;935;-64
2023/06/12 11:37:28;;;;;;;;;;;;;;;27.89;69.07;99251.09;5094589;28;834;-64
2023/06/12 11:40:01;;;;;;;;;;;;;;;28.20;67.63;99248.09;5094983;28;762;-63
2023/06/12 11:42:28;;;;;;;;;;;;;;;28.18;67.52;99248.63;5094414;28;1972;-63
2023/06/12 11:57:14;;;;;;;;;;;;;;;29.36;62.04;99254.47;5094664;28;674;-64
2023/06/12 11:59:40;;;;;;;;;;;;;;;30.22;59.57;99240.75;5094083;28;810;-62
2023/06/12 12:02:08;;;;;;;;;;;;;;;30.57;57.10;99244.34;5094034;28;1902;-62
2023/06/12 12:04:37;;;;;;;;;;;;;;;30.91;54.49;99244.28;5094007;28;817;-63
2023/06/12 12:07:04;;;;;;;;;;;;;;;30.44;53.35;99242.31;5094361;28;865;-65
2023/06/12 12:09:31;;;;;;;;;;;;;;;31.31;51.65;99240.41;5093925;28;801;-65
2023/06/12 12:12:06;;;;;;;;;;;;;;;32.58;46.25;99232.72;5093823;28;904;-65
2023/06/12 12:14:33;;;;;;;;;;;;;;;33.44;42.52;99240.69;5093988;28;810;-63
2023/06/12 12:17:09;;;;;;;;;;;;;;;31.98;42.96;99239.78;5093776;28;797;-65
2023/06/12 12:19:36;;;;;;;;;;;;;;;30.32;46.29;99243.91;5093762;28;794;-64
2023/06/12 12:35:03;;;;;;;;;;;;;;;29.82;46.99;99226.63;5093427;28;714;-64
2023/06/12 12:37:31;;;;;;;;;;;;;;;29.22;48.20;99227.31;5093402;28;814;-64
2023/06/12 12:39:57;;;;;;;;;;;;;;;28.46;49.97;99238.91;5093121;28;849;-64
2023/06/12 12:42:24;;;;;;;;;;;;;;;28.88;49.63;99236.44;5074952;28;1975;-62
2023/06/12 12:44:51;;;;;;;;;;;;;;;30.08;47.64;99237.16;5092169;28;830;-64
2023/06/12 12:47:18;;;;;;;;;;;;;;;30.68;45.88;99232.69;5093116;28;970;-65
2023/06/12 12:49:45;;;;;;;;;;;;;;;30.92;45.34;99223.00;5093080;28;837;-64
2023/06/12 12:52:14;;;;;;;;;;;;;;;29.51;47.34;99231.91;5093110;28;988;-62
2023/06/12 12:54:40;;;;;;;;;;;;;;;28.86;49.48;99244.75;5093000;28;892;-65
2023/06/12 12:57:08;;;;;;;;;;;;;;;28.26;50.79;99243.84;5092939;28;873;-64
2023/06/12 12:59:35;;;;;;;;;;;;;;;27.65;52.08;99236.91;5074753;28;2272;-64
2023/06/12 13:02:02;;;;;;;;;;;;;;;26.96;53.31;99235.34;5092737;28;1886;-64
2023/06/12 13:04:29;;;;;;;;;;;;;;;26.74;54.63;99237.09;5093161;28;888;-65
2023/06/12 13:06:56;;;;;;;;;;;;;;;27.92;51.79;99234.28;5092746;28;814;-64
2023/06/12 13:09:22;;;;;;;;;;;;;;;28.95;49.53;99224.41;5092632;28;826;-65
2023/06/12 13:11:49;;;;;;;;;;;;;;;28.54;49.64;99222.03;5092702;28;880;-64
2023/06/12 13:14:15;;;;;;;;;;;;;;;27.66;51.95;99227.88;5092563;28;845;-65
2023/06/12 13:16:42;;;;;;;;;;;;;;;27.43;52.63;99221.72;5092880;28;802;-65
2023/06/12 13:19:09;;;;;;;;;;;;;;;27.41;52.58;99224.31;5092526;28;860;-67
2023/06/12 13:21:39;;;;;;;;;;;;;;;27.52;52.41;99220.56;5092611;28;1929;-65
2023/06/12 13:24:06;;;;;;;;;;;;;;;27.37;52.89;99221.00;5092463;28;814;-67
2023/06/12 13:26:33;;;;;;;;;;;;;;;26.83;54.21;99221.81;5092357;28;798;-65
2023/06/12 13:28:59;;;;;;;;;;;;;;;26.46;55.78;99223.13;5092366;28;814;-64
2023/06/12 13:31:26;;;;;;;;;;;;;;;26.31;56.56;99228.38;5092334;28;790;-65
2023/06/12 13:33:53;;;;;;;;;;;;;;;26.30;56.91;99224.78;5081246;28;1232;-63
2023/06/12 13:36:20;;;;;;;;;;;;;;;26.51;56.97;99222.31;5071993;28;826;-64
2023/06/12 13:38:47;;;;;;;;;;;;;;;26.58;56.79;99216.09;5071788;28;950;-64
2023/06/12 13:41:14;;;;;;;;;;;;;;;26.47;56.58;99216.16;5071820;28;1913;-64
2023/06/12 13:43:41;;;;;;;;;;;;;;;26.71;56.25;99211.88;5071856;28;1046;-65
2023/06/12 13:46:08;;;;;;;;;;;;;;;26.39;56.31;99218.03;5071811;28;806;-64
2023/06/12 13:48:33;;;;;;;;;;;;;;;26.56;56.21;99210.19;5071919;28;889;-64
2023/06/12 13:51:00;;;;;;;;;;;;;;;27.24;55.03;99206.72;5071804;28;955;-63
2023/06/12 13:53:29;;;;;;;;;;;;;;;26.81;55.10;99208.16;5071769;28;806;-64
2023/06/12 13:55:55;;;;;;;;;;;;;;;26.76;56.07;99211.06;5071723;28;829;-64
2023/06/12 13:58:22;;;;;;;;;;;;;;;26.65;55.54;99206.25;5072007;28;856;-64
2023/06/12 14:00:49;;;;;;;;;;;;;;;26.64;56.17;99205.47;5071692;28;886;-64
2023/06/12 14:03:16;;;;;;;;;;;;;;;26.62;56.01;99210.16;5071621;28;826;-64
2023/06/12 14:05:42;;;;;;;;;;;;;;;26.53;56.22;99218.97;5071688;28;794;-64
2023/06/12 14:08:09;;;;;;;;;;;;;;;26.67;56.43;99204.44;5071728;28;814;-65
2023/06/12 14:10:39;;;;;;;;;;;;;;;27.29;54.91;99203.81;5071580;28;873;-63
2023/06/12 14:13:06;;;;;;;;;;;;;;;27.77;53.78;99203.50;5071568;28;873;-64
2023/06/12 14:15:33;;;;;;;;;;;;;;;27.67;52.92;99206.72;5071452;28;830;-63
2023/06/12 14:18:03;;;;;;;;;;;;;;;27.08;52.90;99197.84;5071718;28;901;-63